createdAt,value
2023-07-20T00:00:11.073Z,19.78
2023-07-20T00:02:40.207Z,19.74
2023-07-20T00:05:08.543Z,19.63
2023-07-20T00:07:36.290Z,19.67
2023-07-20T00:10:03.938Z,19.57
2023-07-20T00:12:31.539Z,19.30
2023-07-20T00:14:59.308Z,19.42
2023-07-20T00:17:26.977Z,19.17
2023-07-20T00:19:56.270Z,19.32
2023-07-20T00:22:23.860Z,19.22
2023-07-20T00:24:51.705Z,19.17
2023-07-20T00:27:19.316Z,19.21
2023-07-20T00:29:46.954Z,19.07
2023-07-20T00:32:14.630Z,19.12
2023-07-20T00:34:42.415Z,19.06
2023-07-20T00:37:11.431Z,18.95
2023-07-20T00:39:39.791Z,18.82
2023-07-20T00:42:07.950Z,18.80
2023-07-20T00:44:36.056Z,18.95
2023-07-20T00:47:03.800Z,18.71
2023-07-20T00:49:34.868Z,18.75
2023-07-20T00:52:05.190Z,18.72
2023-07-20T00:54:34.471Z,18.88
2023-07-20T00:57:03.276Z,18.85
2023-07-20T00:59:31.656Z,18.69
2023-07-20T01:01:59.488Z,18.59
2023-07-20T01:04:27.933Z,18.58
2023-07-20T01:09:45.985Z,18.64
2023-07-20T01:12:18.892Z,18.50
2023-07-20T01:14:47.263Z,18.35
2023-07-20T01:17:14.987Z,18.19
2023-07-20T01:19:42.667Z,18.30
2023-07-20T01:22:23.615Z,18.42
2023-07-20T01:25:09.803Z,18.30
2023-07-20T01:28:13.316Z,18.30
2023-07-20T01:30:57.780Z,18.22
2023-07-20T01:33:28.248Z,18.12
2023-07-20T01:35:59.152Z,18.00
2023-07-20T01:38:27.460Z,17.94
2023-07-20T01:40:55.494Z,18.06
2023-07-20T01:43:23.728Z,17.96
2023-07-20T01:45:51.506Z,17.87
2023-07-20T01:48:19.264Z,17.77
2023-07-20T01:50:48.886Z,17.62
2023-07-20T01:53:16.613Z,17.50
2023-07-20T01:55:44.237Z,17.56
2023-07-20T01:58:11.922Z,17.66
2023-07-20T02:00:39.982Z,17.45
2023-07-20T02:03:08.777Z,17.53
2023-07-20T02:05:36.721Z,17.53
2023-07-20T02:08:06.335Z,17.41
2023-07-20T02:10:34.195Z,17.45
2023-07-20T02:13:02.014Z,17.52
2023-07-20T02:15:29.670Z,17.39
2023-07-20T02:17:57.482Z,17.39
2023-07-20T02:20:25.217Z,17.42
2023-07-20T02:22:53.455Z,17.39
2023-07-20T02:25:22.788Z,17.38
2023-07-20T02:27:50.495Z,17.35
2023-07-20T02:30:18.724Z,17.26
2023-07-20T02:32:46.771Z,17.36
2023-07-20T02:35:14.902Z,17.20
2023-07-20T02:37:42.699Z,17.09
2023-07-20T02:40:11.159Z,17.01
2023-07-20T02:42:40.895Z,16.95
2023-07-20T02:45:09.962Z,17.01
2023-07-20T02:47:37.857Z,16.88
2023-07-20T02:50:08.134Z,16.68
2023-07-20T02:52:36.098Z,16.60
2023-07-20T02:55:03.769Z,16.82
2023-07-20T02:57:31.447Z,16.66
2023-07-20T03:00:00.500Z,16.51
2023-07-20T03:02:28.186Z,16.47
2023-07-20T03:04:56.267Z,16.38
2023-07-20T03:07:24.161Z,16.35
2023-07-20T03:09:52.635Z,16.38
2023-07-20T03:12:20.248Z,16.19
2023-07-20T03:14:47.934Z,16.38
2023-07-20T03:17:17.137Z,16.54
2023-07-20T03:19:44.863Z,16.30
2023-07-20T03:22:12.546Z,16.38
2023-07-20T03:24:40.166Z,16.29
2023-07-20T03:27:08.541Z,16.03
2023-07-20T03:29:36.413Z,16.00
2023-07-20T03:32:04.058Z,16.11
2023-07-20T03:34:33.184Z,16.09
2023-07-20T03:37:01.774Z,16.19
2023-07-20T03:39:29.729Z,16.01
2023-07-20T03:41:57.415Z,16.14
2023-07-20T03:44:25.197Z,16.11
2023-07-20T03:46:52.844Z,16.10
2023-07-20T03:49:20.875Z,16.11
2023-07-20T03:51:50.103Z,16.01
2023-07-20T03:54:17.873Z,16.17
2023-07-20T03:56:45.746Z,16.18
2023-07-20T03:59:14.182Z,16.32
2023-07-20T04:01:41.953Z,16.36
2023-07-20T04:04:10.095Z,16.44
2023-07-20T04:06:37.793Z,16.35
2023-07-20T04:09:06.980Z,16.48
2023-07-20T04:11:34.783Z,16.43
2023-07-20T04:14:02.375Z,16.45
2023-07-20T04:16:30.400Z,16.34
2023-07-20T04:18:58.342Z,16.54
2023-07-20T04:21:28.933Z,16.30
2023-07-20T04:23:56.665Z,16.73
2023-07-20T04:26:25.912Z,16.74
2023-07-20T04:28:54.095Z,16.86
2023-07-20T04:31:21.918Z,17.01
2023-07-20T04:33:49.603Z,16.90
2023-07-20T04:36:20.461Z,17.01
2023-07-20T04:38:48.568Z,17.10
2023-07-20T04:41:16.452Z,16.95
2023-07-20T04:43:46.506Z,16.80
2023-07-20T04:46:14.299Z,16.98
2023-07-20T04:48:42.532Z,17.23
2023-07-20T04:51:11.568Z,17.61
2023-07-20T04:53:39.525Z,17.74
2023-07-20T04:56:07.259Z,18.01
2023-07-20T04:58:34.949Z,18.14
2023-07-20T05:01:03.921Z,18.24
2023-07-20T05:03:31.604Z,18.57
2023-07-20T05:05:59.766Z,18.75
2023-07-20T05:08:27.986Z,18.83
2023-07-20T05:10:55.615Z,18.81
2023-07-20T05:13:23.318Z,19.18
2023-07-20T05:15:53.753Z,19.35
2023-07-20T05:18:23.088Z,19.27
2023-07-20T05:20:51.482Z,19.12
2023-07-20T05:23:20.768Z,19.34
2023-07-20T05:25:48.905Z,19.26
2023-07-20T05:28:16.778Z,19.12
2023-07-20T05:30:44.404Z,19.41
2023-07-20T05:33:12.091Z,19.42
2023-07-20T05:35:41.338Z,19.67
2023-07-20T05:38:09.061Z,19.88
2023-07-20T05:40:40.716Z,19.77
2023-07-20T05:43:08.446Z,19.76
2023-07-20T05:45:36.823Z,19.81
2023-07-20T05:48:04.863Z,19.92
2023-07-20T05:50:32.534Z,19.73
2023-07-20T05:53:01.638Z,19.69
2023-07-20T05:55:29.222Z,20.00
2023-07-20T05:57:57.321Z,20.36
2023-07-20T06:00:27.402Z,20.49
2023-07-20T06:02:56.119Z,20.72
2023-07-20T06:05:26.408Z,21.42
2023-07-20T06:07:58.519Z,21.84
2023-07-20T06:10:27.799Z,21.95
2023-07-20T06:12:56.410Z,21.03
2023-07-20T06:15:28.716Z,21.34
2023-07-20T06:17:59.018Z,22.10
2023-07-20T06:20:27.296Z,21.96
2023-07-20T06:22:55.642Z,21.65
2023-07-20T06:25:23.386Z,21.76
2023-07-20T06:27:53.257Z,21.78
2023-07-20T06:30:21.426Z,22.56
2023-07-20T06:32:49.698Z,22.99
2023-07-20T06:35:18.676Z,23.13
2023-07-20T06:37:46.441Z,23.26
2023-07-20T06:45:17.766Z,23.38
2023-07-20T06:47:45.527Z,22.91
2023-07-20T06:50:17.258Z,23.85
2023-07-20T06:52:45.644Z,24.00
2023-07-20T06:55:13.474Z,23.67
2023-07-20T06:57:41.938Z,22.84
2023-07-20T07:00:13.468Z,22.79
2023-07-20T07:02:42.541Z,23.05
2023-07-20T07:07:41.732Z,22.85
2023-07-20T07:10:11.738Z,23.40
2023-07-20T07:12:40.433Z,23.42
2023-07-20T07:15:08.890Z,22.55
2023-07-20T07:17:38.587Z,22.89
2023-07-20T07:20:11.818Z,23.48
2023-07-20T07:25:23.422Z,22.15
2023-07-20T07:27:52.479Z,21.87
2023-07-20T07:30:20.395Z,21.84
2023-07-20T07:32:48.069Z,21.84
2023-07-20T07:35:17.166Z,21.78
2023-07-20T07:37:57.207Z,22.00
2023-07-20T07:40:25.674Z,22.34
2023-07-20T07:42:53.328Z,22.81
2023-07-20T07:45:20.937Z,22.97
2023-07-20T07:47:48.721Z,23.34
2023-07-20T07:50:18.096Z,23.86
2023-07-20T07:52:45.881Z,24.31
2023-07-20T07:55:13.567Z,24.27
2023-07-20T07:57:41.226Z,24.41
2023-07-20T08:00:13.520Z,23.97
2023-07-20T08:02:41.376Z,24.15
2023-07-20T08:05:09.251Z,24.39
2023-07-20T08:07:38.819Z,24.22
2023-07-20T08:10:07.639Z,25.31
2023-07-20T08:12:35.511Z,24.28
2023-07-20T08:15:03.192Z,24.99
2023-07-20T08:17:31.110Z,25.10
2023-07-20T08:19:59.039Z,24.47
2023-07-20T08:22:27.136Z,24.11
2023-07-20T08:24:56.875Z,24.45
2023-07-20T08:27:26.706Z,23.93
2023-07-20T08:29:54.466Z,24.35
2023-07-20T08:32:22.408Z,24.90
2023-07-20T08:34:50.090Z,25.59
2023-07-20T08:37:17.791Z,25.90
2023-07-20T08:39:45.547Z,25.27
2023-07-20T08:42:16.999Z,26.55
2023-07-20T08:44:45.985Z,26.31
2023-07-20T08:47:16.132Z,26.04
2023-07-20T08:49:44.217Z,25.19
2023-07-20T08:52:12.992Z,25.32
2023-07-20T08:54:41.721Z,26.00
2023-07-20T08:57:10.363Z,25.34
2023-07-20T08:59:40.678Z,25.56
2023-07-20T09:02:18.360Z,25.63
2023-07-20T09:04:46.991Z,25.75
2023-07-20T09:07:16.764Z,24.91
2023-07-20T09:09:45.169Z,24.86
2023-07-20T09:12:16.830Z,24.94
2023-07-20T09:14:46.582Z,24.29
2023-07-20T09:17:18.131Z,24.77
2023-07-20T09:19:49.763Z,25.30
2023-07-20T09:22:18.550Z,26.11
2023-07-20T09:24:47.058Z,26.30
2023-07-20T09:27:14.887Z,26.72
2023-07-20T09:29:53.908Z,27.03
2023-07-20T09:32:25.348Z,27.78
2023-07-20T09:34:53.874Z,27.69
2023-07-20T09:37:24.856Z,27.62
2023-07-20T09:44:58.719Z,26.05
2023-07-20T09:47:28.946Z,26.06
2023-07-20T09:55:05.306Z,25.86
2023-07-20T09:57:35.267Z,26.11
2023-07-20T10:02:44.502Z,26.61
2023-07-20T10:05:15.290Z,26.28
2023-07-20T10:07:48.217Z,25.93
2023-07-20T10:10:18.160Z,26.47
2023-07-20T10:12:49.051Z,26.21
2023-07-20T10:15:25.329Z,25.32
2023-07-20T10:18:03.958Z,25.69
2023-07-20T10:20:34.629Z,26.02
2023-07-20T10:23:03.580Z,26.74
2023-07-20T10:25:32.692Z,26.44
2023-07-20T10:28:01.018Z,27.06
2023-07-20T10:30:30.436Z,26.76
2023-07-20T10:32:58.311Z,27.91
2023-07-20T10:35:26.017Z,28.16
2023-07-20T10:37:56.234Z,28.27
2023-07-20T10:40:32.598Z,28.05
2023-07-20T10:43:08.466Z,27.56
2023-07-20T10:45:43.155Z,27.50
2023-07-20T10:48:18.350Z,27.69
2023-07-20T10:50:46.314Z,26.83
2023-07-20T10:53:16.738Z,27.61
2023-07-20T10:55:44.999Z,27.77
2023-07-20T10:58:15.235Z,28.45
2023-07-20T11:01:05.207Z,28.55
2023-07-20T11:03:37.979Z,28.66
2023-07-20T11:06:37.436Z,27.68
2023-07-20T11:09:09.748Z,28.06
2023-07-20T11:11:38.771Z,27.86
2023-07-20T11:14:08.727Z,29.83
2023-07-20T11:16:39.193Z,29.30
2023-07-20T11:19:08.781Z,28.56
2023-07-20T11:21:52.098Z,29.31
2023-07-20T11:24:28.430Z,30.28
2023-07-20T11:26:56.961Z,28.93
2023-07-20T11:29:32.036Z,29.67
2023-07-20T11:32:05.056Z,28.49
2023-07-20T11:34:34.593Z,29.09
2023-07-20T11:39:35.023Z,30.25
2023-07-20T11:42:02.804Z,30.68
2023-07-20T11:44:31.760Z,30.43
2023-07-20T11:47:05.475Z,30.51
2023-07-20T11:49:38.663Z,29.22
2023-07-20T11:52:08.236Z,29.05
2023-07-20T11:54:36.683Z,28.77
2023-07-20T11:57:06.231Z,29.22
2023-07-20T11:59:34.560Z,29.61
2023-07-20T12:02:05.378Z,29.02
2023-07-20T12:04:33.905Z,29.42
2023-07-20T12:07:02.033Z,29.13
2023-07-20T12:09:38.116Z,28.24
2023-07-20T12:12:14.370Z,29.04
2023-07-20T12:14:42.110Z,28.63
2023-07-20T12:17:11.659Z,27.75
2023-07-20T12:19:40.822Z,28.14
2023-07-20T12:22:08.991Z,28.30
2023-07-20T12:24:37.078Z,28.40
2023-07-20T12:27:05.968Z,27.22
2023-07-20T12:29:37.202Z,27.13
2023-07-20T12:32:05.599Z,27.38
2023-07-20T12:34:34.985Z,27.60
2023-07-20T12:37:05.939Z,27.33
2023-07-20T12:39:34.051Z,26.74
2023-07-20T12:42:01.981Z,27.77
2023-07-20T12:44:30.252Z,28.01
2023-07-20T12:46:58.024Z,27.74
2023-07-20T12:49:25.782Z,27.25
2023-07-20T12:51:55.121Z,27.09
2023-07-20T12:54:23.098Z,26.67
2023-07-20T12:59:21.655Z,27.31
2023-07-20T13:01:49.313Z,27.21
2023-07-20T13:04:17.368Z,27.18
2023-07-20T13:06:47.942Z,27.39
2023-07-20T13:09:17.181Z,27.46
2023-07-20T13:11:45.206Z,27.25
2023-07-20T13:14:13.828Z,27.89
2023-07-20T13:16:41.570Z,27.88
2023-07-20T13:19:09.314Z,27.60
2023-07-20T13:21:37.890Z,28.35
2023-07-20T13:24:06.733Z,29.29
2023-07-20T13:26:36.712Z,28.66
2023-07-20T13:29:04.699Z,29.16
2023-07-20T13:31:34.078Z,29.64
2023-07-20T13:34:04.179Z,29.80
2023-07-20T13:36:32.295Z,28.19
2023-07-20T13:39:00.743Z,28.13
2023-07-20T13:41:30.154Z,27.91
2023-07-20T13:43:59.908Z,27.93
2023-07-20T13:48:59.033Z,27.41
2023-07-20T13:51:28.176Z,27.78
2023-07-20T13:53:56.396Z,27.54
2023-07-20T13:56:24.076Z,28.21
2023-07-20T13:58:51.843Z,28.59
2023-07-20T14:03:54.047Z,28.23
2023-07-20T14:06:24.539Z,28.23
2023-07-20T14:08:54.344Z,27.93
2023-07-20T14:13:54.027Z,28.71
2023-07-20T14:16:23.361Z,29.19
2023-07-20T14:18:51.920Z,29.72
2023-07-20T14:21:21.959Z,29.40
2023-07-20T14:23:53.936Z,29.72
2023-07-20T14:26:22.884Z,29.50
2023-07-20T14:28:51.349Z,29.21
2023-07-20T14:31:19.900Z,28.79
2023-07-20T14:33:49.263Z,28.79
2023-07-20T14:38:46.526Z,28.92
2023-07-20T14:41:14.297Z,29.29
2023-07-20T14:43:41.870Z,29.15
2023-07-20T14:46:09.648Z,28.97
2023-07-20T14:48:37.375Z,29.03
2023-07-20T14:51:06.544Z,28.12
2023-07-20T14:53:36.389Z,27.48
2023-07-20T14:56:05.520Z,28.38
2023-07-20T14:58:35.705Z,28.14
2023-07-20T15:01:04.555Z,28.70
2023-07-20T15:03:33.120Z,29.10
2023-07-20T15:06:01.787Z,27.50
2023-07-20T15:08:31.043Z,27.17
2023-07-20T15:10:58.722Z,27.09
2023-07-20T15:13:26.806Z,27.46
2023-07-20T15:15:54.560Z,26.55
2023-07-20T15:18:33.692Z,27.02
2023-07-20T15:21:09.672Z,27.64
2023-07-20T15:23:38.764Z,27.47
2023-07-20T15:26:06.409Z,27.74
2023-07-20T15:28:34.273Z,26.45
2023-07-20T15:31:03.109Z,26.52
2023-07-20T15:33:31.176Z,27.01
2023-07-20T15:35:59.134Z,27.01
2023-07-20T15:38:27.310Z,26.62
2023-07-20T15:40:58.439Z,26.76
2023-07-20T15:43:26.301Z,26.43
2023-07-20T15:46:06.261Z,27.03
2023-07-20T15:48:34.649Z,26.74
2023-07-20T15:51:02.841Z,26.84
2023-07-20T15:53:30.678Z,27.31
2023-07-20T15:55:59.684Z,27.24
2023-07-20T15:58:27.444Z,27.30
2023-07-20T16:00:57.245Z,27.10
2023-07-20T16:03:25.743Z,26.85
2023-07-20T16:05:54.446Z,27.22
2023-07-20T16:08:22.835Z,27.57
2023-07-20T16:10:51.024Z,27.34
2023-07-20T16:13:20.605Z,28.08
2023-07-20T16:18:19.051Z,27.96
2023-07-20T16:20:47.297Z,27.95
2023-07-20T16:23:15.514Z,27.97
2023-07-20T16:25:46.630Z,27.91
2023-07-20T16:28:14.325Z,27.72
2023-07-20T16:30:43.628Z,27.28
2023-07-20T16:33:11.372Z,27.74
2023-07-20T16:38:14.406Z,27.97
2023-07-20T16:43:13.678Z,27.52
2023-07-20T16:45:44.347Z,27.97
2023-07-20T16:48:12.206Z,27.71
2023-07-20T16:50:40.289Z,28.00
2023-07-20T16:53:08.066Z,27.71
2023-07-20T16:55:35.860Z,27.64
2023-07-20T16:58:03.509Z,27.62
2023-07-20T17:00:31.219Z,27.65
2023-07-20T17:03:00.399Z,27.70
2023-07-20T17:05:28.177Z,27.84
2023-07-20T17:07:56.523Z,27.63
2023-07-20T17:10:25.366Z,27.62
2023-07-20T17:12:53.280Z,27.61
2023-07-20T17:15:24.045Z,27.96
2023-07-20T17:17:53.091Z,27.97
2023-07-20T17:22:53.699Z,27.11
2023-07-20T17:30:23.039Z,27.51
2023-07-20T17:32:52.447Z,27.19
2023-07-20T17:35:21.920Z,27.02
2023-07-20T17:45:23.424Z,27.04
2023-07-20T17:47:51.445Z,27.50
2023-07-20T17:50:19.409Z,27.32
2023-07-20T17:52:47.186Z,27.18
2023-07-20T17:55:16.485Z,27.43
2023-07-20T17:57:44.183Z,27.04
2023-07-20T18:02:44.435Z,27.19
2023-07-20T18:05:12.272Z,27.00
2023-07-20T18:07:41.884Z,27.09
2023-07-20T18:10:10.280Z,26.69
2023-07-20T18:12:39.380Z,26.47
2023-07-20T18:15:08.428Z,26.06
2023-07-20T18:17:37.748Z,26.20
2023-07-20T18:20:07.497Z,25.93
2023-07-20T18:22:35.814Z,25.94
2023-07-20T18:25:06.135Z,25.88
2023-07-20T18:27:34.570Z,25.97
2023-07-20T18:30:03.690Z,25.68
2023-07-20T18:32:31.481Z,25.64
2023-07-20T18:34:59.344Z,25.71
2023-07-20T18:37:27.090Z,25.44
2023-07-20T18:39:54.980Z,25.34
2023-07-20T18:42:22.781Z,25.18
2023-07-20T18:44:51.942Z,25.33
2023-07-20T18:47:21.213Z,25.38
2023-07-20T18:49:49.121Z,25.11
2023-07-20T18:52:16.843Z,25.19
2023-07-20T18:54:44.850Z,24.92
2023-07-20T18:57:12.820Z,24.76
2023-07-20T18:59:42.243Z,24.28
2023-07-20T19:02:10.430Z,24.08
2023-07-20T19:04:39.632Z,24.48
2023-07-20T19:07:07.939Z,23.84
2023-07-20T19:09:35.992Z,24.38
2023-07-20T19:12:03.840Z,23.97
2023-07-20T19:14:31.859Z,23.78
2023-07-20T19:16:59.679Z,23.67
2023-07-20T19:19:27.521Z,23.81
2023-07-20T19:21:56.655Z,23.65
2023-07-20T19:24:24.458Z,23.93
2023-07-20T19:26:52.329Z,23.77
2023-07-20T19:29:20.372Z,23.61
2023-07-20T19:31:48.251Z,23.81
2023-07-20T19:34:16.392Z,24.10
2023-07-20T19:36:44.437Z,23.49
2023-07-20T19:39:13.963Z,23.55
2023-07-20T19:41:42.126Z,23.88
2023-07-20T19:44:10.634Z,23.62
2023-07-20T19:46:40.279Z,23.89
2023-07-20T19:49:08.284Z,23.97
2023-07-20T19:51:37.366Z,23.86
2023-07-20T19:56:37.553Z,23.99
2023-07-20T19:59:06.101Z,23.79
2023-07-20T20:06:35.466Z,23.78
2023-07-20T20:09:03.325Z,23.91
2023-07-20T20:11:31.199Z,23.97
2023-07-20T20:14:00.679Z,23.99
2023-07-20T20:16:28.725Z,23.92
2023-07-20T20:18:56.762Z,23.69
2023-07-20T20:21:24.751Z,23.50
2023-07-20T20:23:52.460Z,23.36
2023-07-20T20:26:20.313Z,23.24
2023-07-20T20:28:48.158Z,23.13
2023-07-20T20:31:17.340Z,22.95
2023-07-20T20:33:45.313Z,23.08
2023-07-20T20:36:13.001Z,22.87
2023-07-20T20:38:41.078Z,22.93
2023-07-20T20:41:08.933Z,22.85
2023-07-20T20:43:36.793Z,22.94
2023-07-20T20:46:06.204Z,22.86
2023-07-20T20:48:37.390Z,22.58
2023-07-20T20:51:05.462Z,22.33
2023-07-20T20:53:33.310Z,22.22
2023-07-20T20:56:01.131Z,22.16
2023-07-20T20:58:28.945Z,22.17
2023-07-20T21:01:00.560Z,22.26
2023-07-20T21:03:30.732Z,22.22
2023-07-20T21:05:59.828Z,21.98
2023-07-20T21:08:28.500Z,22.07
2023-07-20T21:10:59.859Z,22.10
2023-07-20T21:13:27.841Z,22.30
2023-07-20T21:15:56.269Z,22.16
2023-07-20T21:18:24.333Z,22.09
2023-07-20T21:20:52.216Z,22.20
2023-07-20T21:23:21.597Z,22.09
2023-07-20T21:25:50.190Z,22.13
2023-07-20T21:28:21.238Z,22.06
2023-07-20T21:31:02.653Z,22.25
2023-07-20T21:33:30.399Z,22.12
2023-07-20T21:35:58.323Z,22.01
2023-07-20T21:38:27.625Z,22.09
2023-07-20T21:40:55.536Z,22.00
2023-07-20T21:43:23.370Z,22.26
2023-07-20T21:45:51.316Z,22.30
2023-07-20T21:48:19.558Z,22.32
2023-07-20T21:50:50.456Z,21.77
2023-07-20T21:53:18.238Z,21.55
2023-07-20T21:55:49.850Z,21.47
2023-07-20T21:58:19.018Z,21.60
2023-07-20T22:00:48.265Z,21.56
2023-07-20T22:03:20.428Z,21.68
2023-07-20T22:05:49.074Z,21.77
2023-07-20T22:08:17.943Z,21.77
2023-07-20T22:10:46.994Z,21.68
2023-07-20T22:13:16.292Z,21.68
2023-07-20T22:15:44.013Z,21.86
2023-07-20T22:18:24.991Z,21.90
2023-07-20T22:20:59.753Z,21.47
2023-07-20T22:23:28.104Z,21.07
2023-07-20T22:25:57.339Z,20.89
2023-07-20T22:28:24.993Z,20.89
2023-07-20T22:30:53.815Z,21.08
2023-07-20T22:33:21.768Z,20.93
2023-07-20T22:35:50.717Z,21.10
2023-07-20T22:38:18.347Z,21.09
2023-07-20T22:40:46.309Z,21.26
2023-07-20T22:43:15.298Z,20.88
2023-07-20T22:45:43.070Z,20.76
2023-07-20T22:48:10.783Z,20.55
2023-07-20T22:50:39.373Z,20.54
2023-07-20T22:53:07.119Z,20.69
2023-07-20T22:55:34.785Z,20.76
2023-07-20T22:58:02.429Z,20.55
2023-07-20T23:00:32.337Z,20.59
2023-07-20T23:03:00.227Z,20.42
2023-07-20T23:05:28.120Z,20.28
2023-07-20T23:07:56.378Z,20.20
2023-07-20T23:10:24.041Z,20.19
2023-07-20T23:12:51.679Z,20.13
2023-07-20T23:15:19.759Z,20.04
2023-07-20T23:17:49.327Z,20.02
2023-07-20T23:20:20.071Z,20.05
2023-07-20T23:22:49.982Z,19.97
2023-07-20T23:25:19.183Z,19.93
2023-07-20T23:27:47.471Z,19.95
2023-07-20T23:30:16.156Z,19.93
2023-07-20T23:32:45.334Z,19.69
2023-07-20T23:35:16.074Z,19.51
2023-07-20T23:37:44.205Z,19.47
2023-07-20T23:40:15.366Z,19.50
2023-07-20T23:42:43.879Z,19.40
2023-07-20T23:45:13.192Z,19.44
2023-07-20T23:47:40.941Z,19.45
2023-07-20T23:50:10.731Z,19.39
2023-07-20T23:52:41.306Z,19.25
2023-07-20T23:55:10.675Z,19.46
2023-07-20T23:57:39.154Z,19.35
